Time;durP1;ratioP1;P1;durP2;ratioP2;P2;SDS_P1;SDS_P2;PMS_P1;PMS_P2;Temp;Humidity;BMP_temperature;BMP_pressure;BME280_temperature;BME280_humidity;BME280_pressure;Samples;Min_cycle;Max_cycle;Signal;HPM_P1;HPM_P2
2022/10/03 00:00:17;;;;;;;17.48;10.10;;;410.50;2355.20;;;;;;4878808;29;20527;-75
2022/10/03 00:03:20;;;;;;;25.30;14.07;;;410.40;2355.20;;;;;;4879812;29;20480;-76
2022/10/03 00:05:50;;;;;;;32.63;19.25;;;410.50;2355.20;;;;;;4883149;29;20032;-76
2022/10/03 00:08:19;;;;;;;37.70;21.63;;;410.40;2355.20;;;;;;4906144;29;20028;-76
2022/10/03 00:11:07;;;;;;;37.47;19.20;;;410.30;2355.20;;;;;;4912937;29;20394;-76
2022/10/03 00:14:08;;;;;;;37.28;20.58;;;410.30;2355.20;;;;;;4962773;28;20037;-76
2022/10/03 00:16:54;;;;;;;32.63;16.83;;;410.20;2355.20;;;;;;5014419;28;20060;-76
2022/10/03 00:19:37;;;;;;;23.37;14.97;;;410.20;2355.20;;;;;;5011513;28;20068;-76
2022/10/03 00:22:31;;;;;;;26.27;13.77;;;410.20;2355.20;;;;;;5012567;28;20076;-75
2022/10/03 00:25:21;;;;;;;16.25;8.57;;;410.20;2355.20;;;;;;4996521;28;20022;-76
2022/10/03 00:27:46;;;;;;;16.00;6.65;;;410.20;2355.20;;;;;;5009948;28;20014;-75
2022/10/03 00:30:19;;;;;;;13.27;5.65;;;410.00;2355.20;;;;;;4996404;28;20084;-75
2022/10/03 00:32:45;;;;;;;10.75;5.95;;;410.00;2355.20;;;;;;5011098;28;20076;-76
2022/10/03 00:35:11;;;;;;;9.13;5.05;;;410.00;2355.20;;;;;;5014230;28;20034;-76
2022/10/03 00:38:08;;;;;;;8.93;4.15;;;410.00;2355.20;;;;;;5000740;28;20014;-76
2022/10/03 00:41:13;;;;;;;9.95;3.92;;;410.00;2355.20;;;;;;4991265;28;20034;-76
2022/10/03 00:43:49;;;;;;;8.93;4.20;;;410.00;2355.20;;;;;;4993698;28;20112;-76
2022/10/03 00:46:33;;;;;;;8.18;4.25;;;410.00;2355.20;;;;;;4994008;28;20475;-76
2022/10/03 00:49:17;;;;;;;6.85;3.67;;;410.00;2355.20;;;;;;5016495;28;20083;-76
2022/10/03 00:51:43;;;;;;;7.50;4.85;;;410.00;2355.20;;;;;;5019486;28;20041;-76
2022/10/03 00:54:30;;;;;;;9.38;5.07;;;410.00;2355.20;;;;;;5016481;28;20483;-76
2022/10/03 00:57:26;;;;;;;9.52;6.45;;;410.00;2355.20;;;;;;4995464;28;20022;-76
2022/10/03 01:00:12;;;;;;;13.30;7.10;;;410.00;2355.20;;;;;;5020046;28;20029;-75
2022/10/03 01:02:58;;;;;;;13.10;7.97;;;410.00;2355.20;;;;;;5010822;28;20053;-76
2022/10/03 01:05:38;;;;;;;12.30;8.98;;;410.00;2355.20;;;;;;5013990;28;20041;-76
2022/10/03 01:08:28;;;;;;;11.45;7.70;;;410.00;2355.20;;;;;;4996509;28;20392;-75
2022/10/03 01:11:11;;;;;;;13.07;6.32;;;410.00;2355.20;;;;;;5010967;28;20045;-77
2022/10/03 01:14:06;;;;;;;13.45;5.88;;;410.00;2355.20;;;;;;5010823;28;20053;-76
2022/10/03 01:16:55;;;;;;;7.93;4.88;;;410.00;2355.20;;;;;;5021275;28;20044;-76
2022/10/03 01:19:31;;;;;;;6.97;4.32;;;409.80;2355.20;;;;;;5022897;28;20053;-76
2022/10/03 01:22:26;;;;;;;5.95;3.90;;;409.80;2355.20;;;;;;5017203;28;20029;-76
2022/10/03 01:25:16;;;;;;;8.00;2.78;;;409.80;2355.20;;;;;;5019893;28;20022;-76
2022/10/03 01:30:46;;;;;;;5.57;2.47;;;409.70;2355.20;;;;;;5017291;28;20049;-76
2022/10/03 01:33:29;;;;;;;14.90;4.07;;;409.60;2355.20;;;;;;4998244;28;20037;-76
2022/10/03 01:36:08;;;;;;;6.47;2.75;;;409.60;2355.20;;;;;;5027065;28;20022;-76
2022/10/03 01:38:55;;;;;;;4.57;2.88;;;409.60;2355.20;;;;;;5014360;28;20539;-75
2022/10/03 01:41:40;;;;;;;5.38;2.92;;;409.70;2355.20;;;;;;5014184;28;20064;-76
2022/10/03 01:44:11;;;;;;;7.43;3.30;;;409.70;2355.20;;;;;;5019310;28;20100;-75
2022/10/03 01:46:48;;;;;;;4.07;2.47;;;409.60;2355.20;;;;;;5001818;28;20026;-76
2022/10/03 01:49:20;;;;;;;6.25;3.10;;;384.90;2329.60;;;;;;5000756;28;20026;-76
2022/10/03 01:52:10;;;;;;;10.48;3.88;;;384.90;2329.60;;;;;;5014187;28;20065;-76
2022/10/03 01:54:44;;;;;;;13.88;7.97;;;384.90;2329.60;;;;;;5013855;28;20108;-76
2022/10/03 01:57:34;;;;;;;16.30;9.20;;;409.60;2355.20;;;;;;5000054;28;20014;-76
2022/10/03 02:00:23;;;;;;;18.35;10.15;;;409.60;2355.20;;;;;;5001117;28;20400;-76
2022/10/03 02:03:15;;;;;;;16.05;7.68;;;409.60;2355.20;;;;;;5011536;28;20041;-76
2022/10/03 02:06:02;;;;;;;14.57;6.85;;;409.60;2355.20;;;;;;5012449;28;20394;-76
2022/10/03 02:08:43;;;;;;;8.20;4.35;;;409.70;2355.20;;;;;;4998760;28;20072;-76
2022/10/03 02:11:10;;;;;;;11.70;3.88;;;409.80;2355.20;;;;;;5024668;28;20075;-75
2022/10/03 02:14:11;;;;;;;7.93;4.57;;;409.90;2355.20;;;;;;4995802;28;20049;-76
2022/10/03 02:16:51;;;;;;;6.68;3.40;;;410.00;2355.20;;;;;;4919714;29;20070;-76
2022/10/03 02:19:35;;;;;;;5.22;3.00;;;410.00;2355.20;;;;;;4938216;29;20509;-76
2022/10/03 02:22:01;;;;;;;6.22;3.58;;;410.00;2355.20;;;;;;4935298;29;20031;-76
2022/10/03 02:24:35;;;;;;;7.60;3.15;;;410.00;2355.20;;;;;;4920391;29;20153;-76
2022/10/03 02:27:52;;;;;;;8.20;3.30;;;410.00;2355.20;;;;;;4917170;29;20024;-76
2022/10/03 02:30:32;;;;;;;7.72;3.58;;;410.10;2355.20;;;;;;4915759;29;20032;-76
2022/10/03 02:33:16;;;;;;;5.25;3.40;;;410.20;2355.20;;;;;;4916182;29;20032;-76
2022/10/03 02:36:13;;;;;;;7.63;3.88;;;410.20;2355.20;;;;;;4898970;29;20096;-76
2022/10/03 02:38:49;;;;;;;5.18;3.40;;;410.10;2355.20;;;;;;4914458;29;20035;-76
2022/10/03 02:41:42;;;;;;;6.38;3.45;;;410.20;2355.20;;;;;;4919103;29;20416;-76
2022/10/03 02:44:10;;;;;;;7.30;4.03;;;410.10;2355.20;;;;;;4916903;29;20047;-75
2022/10/03 02:46:47;;;;;;;5.50;2.97;;;410.20;2355.20;;;;;;4901500;29;20039;-76
2022/10/03 02:49:46;;;;;;;7.30;3.67;;;410.20;2355.20;;;;;;4918058;29;20091;-76
2022/10/03 02:52:12;;;;;;;6.63;3.30;;;410.20;2355.20;;;;;;4952740;28;20444;-76
2022/10/03 02:55:13;;;;;;;8.77;3.88;;;410.10;2355.20;;;;;;4951811;28;20477;-76
2022/10/03 02:58:01;;;;;;;6.82;3.30;;;410.00;2355.20;;;;;;4954301;28;20027;-75
2022/10/03 03:00:39;;;;;;;6.82;3.92;;;410.00;2355.20;;;;;;4963820;28;20495;-75
2022/10/03 03:03:14;;;;;;;8.05;4.07;;;410.00;2355.20;;;;;;4976213;28;20066;-76
2022/10/03 03:06:10;;;;;;;15.32;4.43;;;409.90;2355.20;;;;;;5000138;28;20029;-76
2022/10/03 03:08:39;;;;;;;8.02;3.75;;;409.90;2355.20;;;;;;5015272;28;20407;-76
2022/10/03 03:11:48;;;;;;;8.32;3.55;;;409.80;2355.20;;;;;;5018004;28;20029;-76
2022/10/03 03:14:51;;;;;;;6.40;3.47;;;409.80;2355.20;;;;;;5013430;28;20030;-76
2022/10/03 03:17:26;;;;;;;6.75;3.22;;;409.70;2355.20;;;;;;5001149;28;20018;-75
2022/10/03 03:20:27;;;;;;;5.40;2.70;;;409.70;2355.20;;;;;;4994648;28;20014;-75
2022/10/03 03:23:27;;;;;;;5.05;2.85;;;409.70;2355.20;;;;;;4997224;28;20022;-76
2022/10/03 03:26:30;;;;;;;4.63;2.85;;;409.60;2355.20;;;;;;5017569;28;20019;-76
2022/10/03 03:29:09;;;;;;;6.22;3.08;;;409.60;2355.20;;;;;;4994432;28;20021;-76
2022/10/03 03:32:09;;;;;;;6.28;3.35;;;409.60;2355.20;;;;;;4997206;28;20026;-76
2022/10/03 03:35:17;;;;;;;7.10;3.13;;;409.60;2355.20;;;;;;5011756;28;20092;-76
2022/10/03 03:38:11;;;;;;;6.55;2.85;;;409.60;2355.20;;;;;;5014755;28;20498;-76
2022/10/03 03:41:04;;;;;;;5.18;3.10;;;409.60;2355.20;;;;;;5014657;28;20495;-76
2022/10/03 03:43:44;;;;;;;7.78;2.88;;;409.60;2355.20;;;;;;5010704;28;20025;-76
2022/10/03 03:46:42;;;;;;;3.60;2.83;;;409.70;2355.20;;;;;;5017300;28;20018;-76
2022/10/03 03:49:45;;;;;;;6.13;3.03;;;409.60;2355.20;;;;;;5010858;28;20065;-76
2022/10/03 03:52:29;;;;;;;6.28;3.08;;;409.70;2355.20;;;;;;5014794;28;20124;-76
2022/10/03 03:55:16;;;;;;;6.75;3.30;;;409.60;2355.20;;;;;;4994185;28;20030;-79
2022/10/03 03:58:12;;;;;;;8.18;3.25;;;409.60;2355.20;;;;;;5017065;28;20475;-75
2022/10/03 04:01:28;;;;;;;6.80;3.40;;;409.60;2355.20;;;;;;4956380;28;20027;-77
2022/10/03 04:04:08;;;;;;;9.57;3.53;;;409.60;2355.20;;;;;;4940116;28;20365;-75
2022/10/03 04:07:02;;;;;;;11.55;3.50;;;409.60;2355.20;;;;;;4953876;28;20031;-77
2022/10/03 04:09:48;;;;;;;6.05;3.13;;;409.60;2355.20;;;;;;4936555;28;20031;-76
2022/10/03 04:12:58;;;;;;;7.88;3.75;;;409.60;2355.20;;;;;;4957144;28;20067;-76
2022/10/03 04:15:54;;;;;;;7.10;3.28;;;409.60;2355.20;;;;;;4956792;28;20042;-77
2022/10/03 04:19:01;;;;;;;7.20;3.03;;;409.60;2355.20;;;;;;4961380;28;20046;-77
2022/10/03 04:22:22;;;;;;;5.43;2.85;;;384.90;2329.60;;;;;;4953716;28;20497;-76
2022/10/03 04:24:53;;;;;;;5.45;3.10;;;384.70;2329.60;;;;;;4891924;29;20044;-76
2022/10/03 04:27:18;;;;;;;5.43;2.97;;;384.70;2329.60;;;;;;4891487;29;20029;-76
2022/10/03 04:30:05;;;;;;;8.23;3.20;;;384.70;2329.60;;;;;;4894311;29;20032;-77
2022/10/03 04:32:44;;;;;;;5.22;3.50;;;384.70;2329.60;;;;;;4893012;29;20045;-76
2022/10/03 04:35:28;;;;;;;6.22;2.83;;;384.70;2329.60;;;;;;4892683;29;20396;-77
2022/10/03 04:38:18;;;;;;;5.75;3.03;;;384.70;2329.60;;;;;;4892974;29;20045;-76
2022/10/03 04:40:59;;;;;;;5.05;2.78;;;384.70;2329.60;;;;;;4892095;29;20037;-77
2022/10/03 04:44:01;;;;;;;11.10;2.40;;;384.70;2329.60;;;;;;4892351;29;20479;-77
2022/10/03 04:47:09;;;;;;;4.82;2.70;;;384.70;2329.60;;;;;;4860457;29;20025;-77
2022/10/03 04:49:46;;;;;;;4.15;2.10;;;384.60;2329.60;;;;;;4864039;29;20467;-77
2022/10/03 04:52:36;;;;;;;;;;;384.60;2329.60;;;;;;4882092;29;20110;-77
2022/10/03 04:55:24;;;;;;;7.32;2.60;;;384.50;2329.60;;;;;;4884078;29;19916;-77
2022/10/03 04:57:57;;;;;;;4.45;1.90;;;384.60;2329.60;;;;;;4885299;29;20129;-77
2022/10/03 05:00:34;;;;;;;7.72;2.67;;;384.50;2329.60;;;;;;4896102;28;20065;-76
2022/10/03 05:03:21;;;;;;;4.63;2.40;;;384.50;2329.60;;;;;;4952977;28;20150;-76
2022/10/03 05:05:51;;;;;;;4.28;2.15;;;384.50;2329.60;;;;;;4979331;28;20438;-77
2022/10/03 05:08:32;;;;;;;4.57;2.20;;;384.50;2329.60;;;;;;4973705;28;20078;-76
2022/10/03 05:11:26;;;;;;;5.03;2.28;;;384.50;2329.60;;;;;;4979266;28;20045;-76
2022/10/03 05:14:19;;;;;;;3.85;1.95;;;384.50;2329.60;;;;;;4979923;28;20053;-78
2022/10/03 05:17:25;;;;;;;4.45;2.35;;;384.60;2329.60;;;;;;4976529;28;20141;-78
2022/10/03 05:20:13;;;;;;;5.40;2.08;;;384.50;2329.60;;;;;;4966671;28;20067;-78
2022/10/03 05:23:09;;;;;;;8.05;2.55;;;384.50;2329.60;;;;;;4975828;28;20026;-78
2022/10/03 05:25:55;;;;;;;8.15;2.22;;;384.50;2329.60;;;;;;5006146;28;20518;-78
2022/10/03 05:28:25;;;;;;;3.70;2.35;;;384.50;2329.60;;;;;;4998369;28;20409;-77
2022/10/03 05:31:06;;;;;;;9.00;2.55;;;384.50;2329.60;;;;;;5000803;28;20080;-78
2022/10/03 05:33:56;;;;;;;6.25;2.55;;;384.60;2329.60;;;;;;4990716;28;20051;-76
2022/10/03 05:36:54;;;;;;;5.03;2.83;;;384.60;2329.60;;;;;;4992498;28;20034;-75
2022/10/03 05:39:27;;;;;;;5.78;2.65;;;384.50;2329.60;;;;;;4989708;28;20033;-75
2022/10/03 05:42:09;;;;;;;7.90;2.58;;;384.50;2329.60;;;;;;4981752;28;20030;-75
2022/10/03 05:45:01;;;;;;;10.98;3.22;;;384.50;2329.60;;;;;;4976050;28;20198;-78
2022/10/03 05:47:44;;;;;;;5.97;2.90;;;384.60;2329.60;;;;;;4989271;28;20030;-74
2022/10/03 05:50:42;;;;;;;7.43;3.20;;;384.60;2329.60;;;;;;4995217;28;20030;-80
2022/10/03 05:53:20;;;;;;;4.68;2.85;;;384.70;2329.60;;;;;;4934372;29;20435;-78
2022/10/03 05:56:16;;;;;;;14.90;3.47;;;384.70;2329.60;;;;;;4940030;29;20148;-74
2022/10/03 05:58:48;;;;;;;8.25;2.75;;;384.70;2329.60;;;;;;4953728;29;20039;-77
2022/10/03 06:01:26;;;;;;;6.70;2.83;;;384.70;2329.60;;;;;;4966100;28;20042;-79
2022/10/03 06:04:17;;;;;;;9.68;3.33;;;384.70;2329.60;;;;;;4947569;28;20509;-75
2022/10/03 06:07:02;;;;;;;6.75;3.47;;;384.70;2329.60;;;;;;4955764;28;20027;-75
2022/10/03 06:09:46;;;;;;;9.60;4.18;;;384.80;2329.60;;;;;;4950690;29;20375;-76
2022/10/03 06:13:06;;;;;;;6.72;2.85;;;384.80;2329.60;;;;;;4953236;29;20047;-75
2022/10/03 06:15:44;;;;;;;5.18;2.42;;;384.80;2329.60;;;;;;4878000;29;20556;-74
2022/10/03 06:18:18;;;;;;;8.48;3.38;;;384.80;2329.60;;;;;;4877926;29;20040;-77
2022/10/03 06:21:11;;;;;;;4.97;2.92;;;384.80;2329.60;;;;;;4878007;29;20056;-77
2022/10/03 06:24:13;;;;;;;3.50;2.20;;;384.80;2329.60;;;;;;4877132;29;20158;-78
2022/10/03 06:26:57;;;;;;;5.30;2.40;;;384.90;2329.60;;;;;;4861838;29;20377;-75
2022/10/03 06:29:53;;;;;;;6.50;2.90;;;409.60;2355.20;;;;;;4887291;29;20071;-75
2022/10/03 06:32:56;;;;;;;4.90;2.47;;;409.80;2355.20;;;;;;4946623;29;20036;-75
2022/10/03 06:35:40;;;;;;;4.57;2.30;;;409.80;2355.20;;;;;;4934381;29;20072;-75
2022/10/03 06:38:35;;;;;;;4.80;2.00;;;409.70;2355.20;;;;;;4935764;29;20024;-76
2022/10/03 06:41:45;;;;;;;6.75;2.72;;;409.80;2355.20;;;;;;4945444;28;20058;-75
2022/10/03 06:44:26;;;;;;;4.00;2.58;;;410.00;2355.20;;;;;;4922567;29;20093;-73
2022/10/03 06:47:10;;;;;;;6.95;2.90;;;410.00;2355.20;;;;;;4953370;29;20482;-74
2022/10/03 06:50:00;;;;;;;5.28;2.80;;;410.00;2355.20;;;;;;4936329;28;20023;-74
2022/10/03 06:53:03;;;;;;;5.22;2.70;;;410.20;2355.20;;;;;;5010078;28;20383;-74
2022/10/03 06:55:51;;;;;;;7.75;2.42;;;410.10;2355.20;;;;;;5000105;28;20037;-74
2022/10/03 06:58:29;;;;;;;11.88;3.05;;;410.20;2355.20;;;;;;4995241;28;20475;-74
2022/10/03 07:01:01;;;;;;;5.05;2.70;;;410.20;2355.20;;;;;;5000410;28;20022;-76
2022/10/03 07:03:50;;;;;;;5.85;2.70;;;410.20;2355.20;;;;;;5015797;28;20055;-75
2022/10/03 07:06:58;;;;;;;5.65;2.30;;;410.40;2355.20;;;;;;5052692;28;20028;-74
2022/10/03 07:09:52;;;;;;;4.80;2.25;;;410.40;2355.20;;;;;;5052576;28;20382;-74
2022/10/03 07:12:36;;;;;;;4.80;1.98;;;410.50;2355.20;;;;;;5052464;28;20025;-74
2022/10/03 07:15:17;;;;;;;7.88;2.80;;;435.20;2355.20;;;;;;5004480;28;20034;-74
2022/10/03 07:18:06;;;;;;;5.70;2.80;;;435.30;2355.20;;;;;;5012163;28;20029;-73
2022/10/03 07:20:31;;;;;;;5.45;2.35;;;435.30;2355.20;;;;;;5010906;28;20108;-76
2022/10/03 07:23:19;;;;;;;7.25;2.45;;;435.20;2355.20;;;;;;5014736;28;20124;-76
2022/10/03 07:26:18;;;;;;;6.03;2.47;;;410.50;2355.20;;;;;;5033358;28;20040;-74
2022/10/03 07:29:16;;;;;;;4.68;2.55;;;410.50;2355.20;;;;;;5052313;28;20044;-75
2022/10/03 07:31:59;;;;;;;6.10;2.83;;;435.20;2355.20;;;;;;5052236;28;20028;-74
2022/10/03 07:35:02;;;;;;;6.45;3.08;;;410.50;2355.20;;;;;;5052474;28;20029;-74
2022/10/03 07:40:40;;;;;;;5.47;2.90;;;435.20;2355.20;;;;;;5012881;28;20530;-79
2022/10/03 07:43:24;;;;;;;5.97;2.95;;;435.20;2355.20;;;;;;5010379;28;20033;-75
2022/10/03 07:46:34;;;;;;;6.80;2.70;;;410.50;2355.20;;;;;;5011943;28;20022;-75
2022/10/03 07:49:56;;;;;;;4.53;2.10;;;410.50;2355.20;;;;;;5027526;28;20111;-78
2022/10/03 07:53:07;;;;;;;8.10;3.20;;;435.20;2355.20;;;;;;4971336;28;20500;-74
2022/10/03 07:56:01;;;;;;;9.80;2.85;;;435.30;2355.20;;;;;;4970129;28;20067;-75
2022/10/03 07:59:04;;;;;;;5.53;2.45;;;435.30;2355.20;;;;;;4956021;28;20046;-78
2022/10/03 08:01:58;;;;;;;7.22;2.85;;;435.20;2355.20;;;;;;4935338;29;20058;-74
2022/10/03 08:04:43;;;;;;;6.07;2.58;;;435.30;2355.20;;;;;;4950808;29;20050;-73
2022/10/03 08:07:12;;;;;;;4.00;2.00;;;435.20;2355.20;;;;;;4880191;29;20421;-75
2022/10/03 08:09:58;;;;;;;6.00;2.10;;;435.30;2355.20;;;;;;4875312;29;20033;-74
2022/10/03 08:12:40;;;;;;;7.70;2.65;;;435.30;2355.20;;;;;;4865495;29;20040;-76
2022/10/03 08:15:23;;;;;;;6.40;2.05;;;435.30;2355.20;;;;;;4865292;29;20487;-76
2022/10/03 08:17:58;;;;;;;10.48;2.45;;;435.30;2355.20;;;;;;4883112;29;20037;-78
2022/10/03 08:20:46;;;;;;;10.52;2.72;;;435.30;2355.20;;;;;;4867579;29;20029;-76
2022/10/03 08:23:54;;;;;;;4.28;2.40;;;435.30;2355.20;;;;;;4926082;28;20509;-78
2022/10/03 08:26:50;;;;;;;4.10;2.35;;;435.50;2355.20;;;;;;4937507;29;20094;-83
2022/10/03 08:29:25;;;;;;;6.60;2.67;;;435.60;2355.20;;;;;;4940394;29;20532;-78
2022/10/03 08:32:26;;;;;;;4.03;1.77;;;435.60;2355.20;;;;;;4938509;29;20285;-77
2022/10/03 08:35:27;;;;;;;6.05;3.50;;;435.80;2355.20;;;;;;4897943;29;20068;-77
2022/10/03 08:38:17;;;;;;;7.80;2.38;;;435.70;2355.20;;;;;;4897308;29;20055;-77
2022/10/03 08:41:10;;;;;;;4.15;2.05;;;435.80;2355.20;;;;;;4882259;29;20029;-87
2022/10/03 08:44:02;;;;;;;4.13;2.35;;;435.80;2355.20;;;;;;4907917;29;20047;-77
2022/10/03 08:46:36;;;;;;;5.10;2.00;;;435.80;2355.20;;;;;;4955050;29;20035;-76
2022/10/03 08:49:21;;;;;;;5.80;2.17;;;435.90;2355.20;;;;;;4954583;29;20085;-77
2022/10/03 08:52:02;;;;;;;5.35;2.53;;;435.90;2355.20;;;;;;4938096;29;20024;-77
2022/10/03 08:55:07;;;;;;;6.28;2.47;;;435.90;2355.20;;;;;;4952348;29;20036;-77
2022/10/03 08:57:51;;;;;;;5.57;2.13;;;436.10;2355.20;;;;;;4938563;29;20059;-77
2022/10/03 09:00:39;;;;;;;5.32;2.72;;;460.80;2380.80;;;;;;4954549;29;20975;-77
2022/10/03 09:03:39;;;;;;;4.35;2.10;;;460.80;2380.80;;;;;;4954552;29;20059;-77
2022/10/03 09:06:29;;;;;;;5.07;2.13;;;460.90;2380.80;;;;;;4938985;29;20163;-78
2022/10/03 09:09:10;;;;;;;6.28;2.25;;;460.90;2380.80;;;;;;4939175;29;20572;-77
2022/10/03 09:12:01;;;;;;;5.40;1.92;;;461.10;2380.80;;;;;;4978424;28;20042;-76
2022/10/03 09:14:48;;;;;;;8.48;1.80;;;461.20;2380.80;;;;;;4997288;28;20092;-76
2022/10/03 09:17:35;;;;;;;5.80;2.60;;;461.40;2380.80;;;;;;5006100;28;20024;-78
2022/10/03 09:20:23;;;;;;;4.28;1.80;;;461.40;2380.80;;;;;;4983407;28;20548;-77
2022/10/03 09:22:48;;;;;;;3.97;1.90;;;461.60;2380.80;;;;;;5009063;28;20459;-75
2022/10/03 09:25:52;;;;;;;6.03;1.92;;;461.50;2380.80;;;;;;4993593;28;20041;-76
2022/10/03 09:29:06;;;;;;;3.95;1.90;;;461.40;2380.80;;;;;;4994452;28;20054;-75
2022/10/03 09:31:56;;;;;;;7.32;2.40;;;461.30;2380.80;;;;;;4956913;28;20034;-75
2022/10/03 09:34:36;;;;;;;6.13;1.80;;;461.40;2380.80;;;;;;4971948;28;20057;-75
2022/10/03 09:37:23;;;;;;;4.63;1.70;;;461.70;2380.80;;;;;;4972555;28;20038;-75
2022/10/03 09:39:48;;;;;;;3.83;1.50;;;486.40;2380.80;;;;;;4973013;28;20023;-75
2022/10/03 09:43:01;;;;;;;5.32;1.63;;;486.60;2380.80;;;;;;4957086;28;20085;-77
2022/10/03 09:45:47;;;;;;;4.05;1.38;;;486.70;2380.80;;;;;;4916083;29;20040;-76
2022/10/03 09:48:34;;;;;;;7.35;1.52;;;487.10;2380.80;;;;;;4915242;29;20091;-75
2022/10/03 09:51:20;;;;;;;2.63;1.27;;;487.10;2380.80;;;;;;4899501;29;20548;-75
2022/10/03 09:54:07;;;;;;;7.60;1.60;;;487.20;2278.40;;;;;;4899724;29;20064;-74
2022/10/03 09:56:35;;;;;;;2.92;1.20;;;512.00;2355.20;;;;;;4915424;29;20115;-73
2022/10/03 09:59:36;;;;;;;3.72;2.05;;;512.30;2176.00;;;;;;4899251;29;20032;-75
2022/10/03 10:02:08;;;;;;;5.43;1.58;;;512.60;2304.00;;;;;;4898994;29;20036;-73
2022/10/03 10:04:54;;;;;;;4.80;1.80;;;512.50;2124.80;;;;;;4899948;29;20032;-75
2022/10/03 10:07:35;;;;;;;5.25;1.80;;;512.50;2227.20;;;;;;4918275;29;20052;-74
2022/10/03 10:10:18;;;;;;;7.90;2.20;;;512.60;2150.40;;;;;;4954952;28;20617;-75
2022/10/03 10:13:03;;;;;;;5.82;1.52;;;512.90;2022.40;;;;;;4963735;28;20031;-75
2022/10/03 10:15:59;;;;;;;4.32;1.63;;;512.90;2073.60;;;;;;4939506;28;20039;-74
2022/10/03 10:19:02;;;;;;;7.20;1.60;;;512.90;1920.00;;;;;;4936762;28;20027;-73
2022/10/03 10:22:00;;;;;;;6.60;1.83;;;537.70;1971.20;;;;;;4995092;28;20037;-76
2022/10/03 10:25:02;;;;;;;3.45;1.63;;;538.00;1996.80;;;;;;4953084;28;20054;-76
2022/10/03 10:28:05;;;;;;;5.88;1.92;;;538.40;1945.60;;;;;;4937337;29;20126;-76
2022/10/03 10:30:53;;;;;;;4.32;1.65;;;538.00;1945.60;;;;;;4944589;28;20102;-76
2022/10/03 10:33:33;;;;;;;5.20;2.05;;;512.80;1868.80;;;;;;4937279;29;20126;-76
2022/10/03 10:36:26;;;;;;;6.25;1.80;;;512.70;1920.00;;;;;;4953499;28;20031;-75
2022/10/03 10:39:23;;;;;;;5.60;1.92;;;487.30;1971.20;;;;;;4937117;29;20052;-75
2022/10/03 10:42:07;;;;;;;5.75;2.50;;;487.10;1920.00;;;;;;4953278;28;20047;-75
2022/10/03 10:44:54;;;;;;;10.18;1.80;;;487.30;1920.00;;;;;;4953368;28;20038;-74
2022/10/03 10:48:04;;;;;;;3.85;1.73;;;512.00;1894.40;;;;;;4935958;29;20042;-75
2022/10/03 10:50:51;;;;;;;7.70;1.85;;;486.90;1971.20;;;;;;4950261;28;20081;-76
2022/10/03 10:53:54;;;;;;;7.00;1.95;;;487.10;1945.60;;;;;;4936800;29;20421;-78
2022/10/03 10:57:00;;;;;;;7.03;2.33;;;512.00;2022.40;;;;;;4936773;29;20024;-75
2022/10/03 10:59:25;;;;;;;9.35;1.80;;;487.10;1996.80;;;;;;4967375;28;20148;-75
2022/10/03 11:02:09;;;;;;;4.10;1.40;;;512.00;1868.80;;;;;;4983683;28;20045;-75
2022/10/03 11:05:13;;;;;;;4.70;1.30;;;512.70;1868.80;;;;;;5020285;28;20033;-75
2022/10/03 11:08:12;;;;;;;5.05;2.00;;;512.50;1843.20;;;;;;5033130;28;20353;-75
2022/10/03 11:10:57;;;;;;;5.80;1.83;;;512.80;1894.40;;;;;;5038563;28;20026;-76
2022/10/03 11:14:00;;;;;;;5.07;1.60;;;512.30;1894.40;;;;;;5034887;28;20036;-77
2022/10/03 11:16:53;;;;;;;6.93;2.17;;;487.20;1971.20;;;;;;5026170;28;20040;-75
2022/10/03 11:19:31;;;;;;;7.05;2.10;;;512.10;1945.60;;;;;;5031551;28;20063;-74
2022/10/03 11:22:44;;;;;;;8.10;2.20;;;512.00;1894.40;;;;;;5034666;28;20355;-75
2022/10/03 11:25:29;;;;;;;6.35;1.95;;;487.30;1920.00;;;;;;5044238;28;20040;-76
2022/10/03 11:28:32;;;;;;;5.00;1.80;;;512.60;1894.40;;;;;;5036741;28;20074;-77
2022/10/03 11:31:19;;;;;;;5.72;1.52;;;538.00;1868.80;;;;;;5052634;28;20083;-77
2022/10/03 11:34:16;;;;;;;6.00;1.55;;;512.90;1792.00;;;;;;5034687;28;20036;-76
2022/10/03 11:37:14;;;;;;;3.22;1.45;;;512.60;1894.40;;;;;;5047087;28;20025;-76
2022/10/03 11:39:51;;;;;;;5.32;1.63;;;512.80;1971.20;;;;;;4971434;28;20512;-76
2022/10/03 11:42:19;;;;;;;5.25;1.50;;;512.20;1971.20;;;;;;4971480;28;20031;-78
2022/10/03 11:44:59;;;;;;;6.25;1.73;;;487.20;1945.60;;;;;;4971792;28;20484;-76
2022/10/03 11:47:51;;;;;;;7.80;1.92;;;487.00;2022.40;;;;;;4971650;28;20042;-76
2022/10/03 11:50:23;;;;;;;4.18;1.70;;;486.80;1971.20;;;;;;4954644;28;20038;-76
2022/10/03 11:52:58;;;;;;;5.57;1.80;;;487.10;1945.60;;;;;;4955047;28;20118;-76
2022/10/03 11:55:51;;;;;;;5.60;1.92;;;512.00;1920.00;;;;;;4971264;28;20551;-77
2022/10/03 11:58:26;;;;;;;4.13;1.90;;;487.20;1996.80;;;;;;4971201;28;20027;-76
2022/10/03 12:01:06;;;;;;;5.97;1.50;;;487.00;1971.20;;;;;;4954755;28;20121;-75
2022/10/03 12:03:42;;;;;;;3.25;1.50;;;487.10;1945.60;;;;;;4971334;28;20162;-76
2022/10/03 12:09:28;;;;;;;1.80;1.20;;;512.90;1740.80;;;;;;4970832;28;20086;-73
2022/10/03 12:12:02;;;;;;;4.57;1.50;;;538.10;1792.00;;;;;;4971204;28;20035;-75
2022/10/03 12:14:49;;;;;;;8.82;1.95;;;512.50;1740.80;;;;;;4961947;28;20033;-76
2022/10/03 12:17:18;;;;;;;5.15;1.58;;;512.70;1766.40;;;;;;5026948;28;20067;-76
2022/10/03 12:20:03;;;;;;;6.75;1.73;;;537.80;1740.80;;;;;;5019933;28;20124;-76
2022/10/03 12:22:51;;;;;;;7.32;1.42;;;538.00;1689.60;;;;;;5034008;28;20029;-76
2022/10/03 12:25:30;;;;;;;6.60;1.63;;;512.90;1689.60;;;;;;5033928;28;20033;-76
2022/10/03 12:28:19;;;;;;;4.32;1.40;;;512.50;1740.80;;;;;;5033599;28;20013;-75
2022/10/03 12:30:50;;;;;;;4.63;1.80;;;512.20;1766.40;;;;;;5051521;28;20029;-77
2022/10/03 12:33:40;;;;;;;3.38;1.38;;;512.10;1766.40;;;;;;5051579;28;20025;-76
2022/10/03 12:36:22;;;;;;;4.53;1.42;;;487.20;1792.00;;;;;;5033482;28;20499;-76
2022/10/03 12:39:24;;;;;;;3.60;1.55;;;487.00;1868.80;;;;;;5033751;28;20025;-77
2022/10/03 12:42:02;;;;;;;3.38;1.40;;;486.80;1920.00;;;;;;5033451;28;20051;-76
2022/10/03 12:44:42;;;;;;;4.47;1.50;;;486.70;1894.40;;;;;;5051773;28;20479;-76
2022/10/03 12:47:24;;;;;;;6.35;1.60;;;486.60;1920.00;;;;;;5033147;28;20021;-79
2022/10/03 12:50:17;;;;;;;6.45;1.75;;;486.50;1971.20;;;;;;5051690;28;20017;-75
2022/10/03 12:53:13;;;;;;;5.90;1.52;;;486.60;1996.80;;;;;;5026484;28;20029;-75
2022/10/03 12:56:03;;;;;;;6.30;1.77;;;486.60;2073.60;;;;;;5051382;28;20033;-75
2022/10/03 12:58:51;;;;;;;6.45;2.08;;;486.80;2099.20;;;;;;5011326;28;20037;-78
2022/10/03 13:01:44;;;;;;;6.10;1.63;;;486.90;2124.80;;;;;;5009238;28;20479;-77
2022/10/03 13:04:28;;;;;;;4.07;1.60;;;486.90;2124.80;;;;;;5009812;28;20049;-77
2022/10/03 13:07:06;;;;;;;7.90;2.53;;;486.90;1945.60;;;;;;5027354;28;20102;-76
2022/10/03 13:10:00;;;;;;;5.38;1.42;;;512.10;1945.60;;;;;;5026603;28;20059;-75
2022/10/03 13:12:39;;;;;;;5.43;2.05;;;512.10;1843.20;;;;;;5022787;28;20555;-76
2022/10/03 13:15:32;;;;;;;3.08;1.48;;;487.20;1843.20;;;;;;5014539;28;20038;-74
2022/10/03 13:18:44;;;;;;;4.20;1.30;;;487.10;1920.00;;;;;;5022921;28;20029;-75
2022/10/03 13:21:18;;;;;;;5.28;1.50;;;486.70;1920.00;;;;;;4954198;28;20055;-76
2022/10/03 13:23:53;;;;;;;5.00;1.67;;;486.60;2022.40;;;;;;4972504;28;20121;-75
2022/10/03 13:26:31;;;;;;;5.05;1.85;;;486.50;1996.80;;;;;;4973795;28;20026;-74
2022/10/03 13:29:10;;;;;;;8.45;2.38;;;486.50;2048.00;;;;;;4973814;28;20078;-73
2022/10/03 13:31:54;;;;;;;4.75;1.77;;;486.40;2073.60;;;;;;4964568;28;20035;-73
2022/10/03 13:34:25;;;;;;;6.43;1.75;;;486.40;2022.40;;;;;;4961198;28;20043;-75
2022/10/03 13:37:11;;;;;;;7.70;2.38;;;461.70;2048.00;;;;;;4953646;28;20070;-75
2022/10/03 13:39:53;;;;;;;4.30;1.80;;;461.60;2022.40;;;;;;4953797;28;20027;-73
2022/10/03 13:42:27;;;;;;;5.22;2.03;;;461.70;1996.80;;;;;;4955966;28;20401;-75
2022/10/03 13:45:19;;;;;;;2.83;1.40;;;486.40;2022.40;;;;;;4964129;28;20366;-74
2022/10/03 13:47:59;;;;;;;5.72;1.60;;;486.50;2022.40;;;;;;4953122;28;20035;-73
2022/10/03 13:50:38;;;;;;;2.35;1.30;;;486.80;1945.60;;;;;;4954605;28;20541;-74
2022/10/03 13:53:38;;;;;;;5.32;1.42;;;486.80;1945.60;;;;;;4960600;28;20031;-73
2022/10/03 13:56:25;;;;;;;3.78;1.30;;;486.60;1843.20;;;;;;5013376;28;20045;-74
2022/10/03 13:59:19;;;;;;;8.32;1.40;;;486.40;1894.40;;;;;;5016570;28;20025;-75
2022/10/03 14:01:54;;;;;;;5.18;1.85;;;486.40;1868.80;;;;;;5019415;28;20038;-75
2022/10/03 14:04:40;;;;;;;4.82;1.55;;;486.40;1945.60;;;;;;5013767;28;20045;-75